sensor_id;sensor_type;location;lat;lon;timestamp;P1;durP1;ratioP1;P2;durP2;ratioP2
19036;SDS011;9651;49.138;8.900;2023-03-02T00:02:46;33.00;;;14.57;;
19036;SDS011;9651;49.138;8.900;2023-03-02T00:06:48;30.17;;;15.27;;
19036;SDS011;9651;49.138;8.900;2023-03-02T00:10:54;27.47;;;14.57;;
19036;SDS011;9651;49.138;8.900;2023-03-02T00:14:56;33.07;;;17.07;;
19036;SDS011;9651;49.138;8.900;2023-03-02T00:19:00;32.57;;;15.33;;
19036;SDS011;9651;49.138;8.900;2023-03-02T00:23:01;29.03;;;15.17;;
19036;SDS011;9651;49.138;8.900;2023-03-02T00:27:03;27.60;;;14.57;;
19036;SDS011;9651;49.138;8.900;2023-03-02T00:31:06;30.87;;;15.67;;
19036;SDS011;9651;49.138;8.900;2023-03-02T00:35:10;30.93;;;15.27;;
19036;SDS011;9651;49.138;8.900;2023-03-02T00:39:12;29.70;;;15.30;;
19036;SDS011;9651;49.138;8.900;2023-03-02T00:43:14;30.77;;;15.70;;
19036;SDS011;9651;49.138;8.900;2023-03-02T00:47:16;29.50;;;15.33;;
19036;SDS011;9651;49.138;8.900;2023-03-02T00:51:20;31.80;;;15.03;;
19036;SDS011;9651;49.138;8.900;2023-03-02T00:55:22;32.87;;;15.30;;
19036;SDS011;9651;49.138;8.900;2023-03-02T00:59:24;33.70;;;16.27;;
19036;SDS011;9651;49.138;8.900;2023-03-02T01:03:52;35.20;;;15.13;;
19036;SDS011;9651;49.138;8.900;2023-03-02T01:07:55;35.20;;;16.03;;
19036;SDS011;9651;49.138;8.900;2023-03-02T01:11:57;33.33;;;15.80;;
19036;SDS011;9651;49.138;8.900;2023-03-02T01:16:00;31.40;;;16.13;;
19036;SDS011;9651;49.138;8.900;2023-03-02T01:20:02;31.87;;;15.90;;
19036;SDS011;9651;49.138;8.900;2023-03-02T01:24:09;32.50;;;17.07;;
19036;SDS011;9651;49.138;8.900;2023-03-02T01:28:11;32.57;;;15.43;;
19036;SDS011;9651;49.138;8.900;2023-03-02T01:32:13;34.30;;;17.33;;
19036;SDS011;9651;49.138;8.900;2023-03-02T01:36:15;31.03;;;15.77;;
19036;SDS011;9651;49.138;8.900;2023-03-02T01:40:19;34.33;;;16.37;;
19036;SDS011;9651;49.138;8.900;2023-03-02T01:44:34;29.90;;;15.33;;
19036;SDS011;9651;49.138;8.900;2023-03-02T01:48:41;34.63;;;15.87;;
19036;SDS011;9651;49.138;8.900;2023-03-02T01:52:49;34.40;;;14.87;;
19036;SDS011;9651;49.138;8.900;2023-03-02T01:56:55;33.07;;;15.60;;
19036;SDS011;9651;49.138;8.900;2023-03-02T02:01:00;32.10;;;16.00;;
19036;SDS011;9651;49.138;8.900;2023-03-02T02:05:02;33.53;;;15.57;;
19036;SDS011;9651;49.138;8.900;2023-03-02T02:09:05;32.57;;;16.17;;
19036;SDS011;9651;49.138;8.900;2023-03-02T02:13:12;33.30;;;16.60;;
19036;SDS011;9651;49.138;8.900;2023-03-02T02:17:14;33.60;;;16.40;;
19036;SDS011;9651;49.138;8.900;2023-03-02T02:21:18;31.73;;;15.67;;
19036;SDS011;9651;49.138;8.900;2023-03-02T02:25:23;31.73;;;15.90;;
19036;SDS011;9651;49.138;8.900;2023-03-02T02:29:38;31.40;;;15.13;;
19036;SDS011;9651;49.138;8.900;2023-03-02T02:33:45;33.63;;;16.03;;
19036;SDS011;9651;49.138;8.900;2023-03-02T02:37:54;30.13;;;15.53;;
19036;SDS011;9651;49.138;8.900;2023-03-02T02:42:02;30.73;;;14.87;;
19036;SDS011;9651;49.138;8.900;2023-03-02T02:46:08;34.80;;;15.73;;
19036;SDS011;9651;49.138;8.900;2023-03-02T02:50:15;34.67;;;16.03;;
19036;SDS011;9651;49.138;8.900;2023-03-02T02:54:19;31.60;;;16.03;;
19036;SDS011;9651;49.138;8.900;2023-03-02T02:58:24;35.00;;;16.53;;
19036;SDS011;9651;49.138;8.900;2023-03-02T03:02:32;37.70;;;17.07;;
19036;SDS011;9651;49.138;8.900;2023-03-02T03:06:38;34.00;;;15.37;;
19036;SDS011;9651;49.138;8.900;2023-03-02T03:10:51;33.23;;;16.77;;
19036;SDS011;9651;49.138;8.900;2023-03-02T03:14:53;35.23;;;14.40;;
19036;SDS011;9651;49.138;8.900;2023-03-02T03:18:57;36.63;;;16.60;;
19036;SDS011;9651;49.138;8.900;2023-03-02T03:23:05;31.73;;;14.47;;
19036;SDS011;9651;49.138;8.900;2023-03-02T03:27:08;33.33;;;16.13;;
19036;SDS011;9651;49.138;8.900;2023-03-02T03:31:13;35.90;;;16.33;;
19036;SDS011;9651;49.138;8.900;2023-03-02T03:35:16;27.73;;;15.33;;
19036;SDS011;9651;49.138;8.900;2023-03-02T03:39:19;33.97;;;16.43;;
19036;SDS011;9651;49.138;8.900;2023-03-02T03:43:22;34.53;;;15.13;;
19036;SDS011;9651;49.138;8.900;2023-03-02T03:47:27;33.40;;;15.77;;
19036;SDS011;9651;49.138;8.900;2023-03-02T03:51:30;37.47;;;17.07;;
19036;SDS011;9651;49.138;8.900;2023-03-02T03:55:35;32.63;;;15.67;;
19036;SDS011;9651;49.138;8.900;2023-03-02T03:59:37;34.33;;;16.13;;
19036;SDS011;9651;49.138;8.900;2023-03-02T04:03:39;36.50;;;16.03;;
19036;SDS011;9651;49.138;8.900;2023-03-02T04:07:43;33.23;;;16.30;;
19036;SDS011;9651;49.138;8.900;2023-03-02T04:11:46;30.93;;;14.80;;
19036;SDS011;9651;49.138;8.900;2023-03-02T04:15:51;35.97;;;16.67;;
19036;SDS011;9651;49.138;8.900;2023-03-02T04:19:53;30.97;;;15.53;;
19036;SDS011;9651;49.138;8.900;2023-03-02T04:23:56;33.80;;;16.57;;
19036;SDS011;9651;49.138;8.900;2023-03-02T04:27:58;32.70;;;15.67;;
19036;SDS011;9651;49.138;8.900;2023-03-02T04:32:03;38.17;;;15.93;;
19036;SDS011;9651;49.138;8.900;2023-03-02T04:36:08;33.83;;;16.03;;
19036;SDS011;9651;49.138;8.900;2023-03-02T04:40:12;36.70;;;15.70;;
19036;SDS011;9651;49.138;8.900;2023-03-02T04:44:17;32.57;;;15.20;;
19036;SDS011;9651;49.138;8.900;2023-03-02T04:48:20;37.17;;;15.37;;
19036;SDS011;9651;49.138;8.900;2023-03-02T04:52:22;31.93;;;15.97;;
19036;SDS011;9651;49.138;8.900;2023-03-02T04:56:26;39.40;;;15.67;;
19036;SDS011;9651;49.138;8.900;2023-03-02T05:00:28;36.63;;;14.63;;
19036;SDS011;9651;49.138;8.900;2023-03-02T05:04:33;30.97;;;15.93;;
19036;SDS011;9651;49.138;8.900;2023-03-02T05:08:35;35.57;;;17.20;;
19036;SDS011;9651;49.138;8.900;2023-03-02T05:12:38;44.63;;;16.00;;
19036;SDS011;9651;49.138;8.900;2023-03-02T05:16:54;41.67;;;16.87;;
19036;SDS011;9651;49.138;8.900;2023-03-02T05:20:56;37.27;;;15.97;;
19036;SDS011;9651;49.138;8.900;2023-03-02T05:24:57;37.33;;;14.93;;
19036;SDS011;9651;49.138;8.900;2023-03-02T05:29:01;33.27;;;15.50;;
19036;SDS011;9651;49.138;8.900;2023-03-02T05:33:03;41.37;;;17.67;;
19036;SDS011;9651;49.138;8.900;2023-03-02T05:37:05;34.20;;;15.57;;
19036;SDS011;9651;49.138;8.900;2023-03-02T05:41:07;34.07;;;15.87;;
19036;SDS011;9651;49.138;8.900;2023-03-02T05:45:12;37.27;;;16.80;;
19036;SDS011;9651;49.138;8.900;2023-03-02T05:49:18;31.77;;;15.20;;
19036;SDS011;9651;49.138;8.900;2023-03-02T05:53:20;34.93;;;16.67;;
19036;SDS011;9651;49.138;8.900;2023-03-02T05:57:22;41.23;;;16.33;;
19036;SDS011;9651;49.138;8.900;2023-03-02T06:01:26;34.90;;;16.33;;
19036;SDS011;9651;49.138;8.900;2023-03-02T06:05:27;32.00;;;15.07;;
19036;SDS011;9651;49.138;8.900;2023-03-02T06:09:29;38.30;;;16.37;;
19036;SDS011;9651;49.138;8.900;2023-03-02T06:13:31;34.87;;;16.07;;
19036;SDS011;9651;49.138;8.900;2023-03-02T06:17:35;33.10;;;16.23;;
19036;SDS011;9651;49.138;8.900;2023-03-02T06:21:37;33.10;;;15.47;;
19036;SDS011;9651;49.138;8.900;2023-03-02T06:25:39;33.40;;;16.03;;
19036;SDS011;9651;49.138;8.900;2023-03-02T06:29:47;32.70;;;15.20;;
19036;SDS011;9651;49.138;8.900;2023-03-02T06:33:51;37.10;;;16.50;;
19036;SDS011;9651;49.138;8.900;2023-03-02T06:37:52;36.20;;;16.10;;
19036;SDS011;9651;49.138;8.900;2023-03-02T06:41:54;35.30;;;16.17;;
19036;SDS011;9651;49.138;8.900;2023-03-02T06:45:57;36.67;;;16.33;;
19036;SDS011;9651;49.138;8.900;2023-03-02T06:50:02;39.87;;;18.13;;
19036;SDS011;9651;49.138;8.900;2023-03-02T06:54:05;41.10;;;17.93;;
19036;SDS011;9651;49.138;8.900;2023-03-02T06:58:07;39.77;;;18.33;;
19036;SDS011;9651;49.138;8.900;2023-03-02T07:02:12;45.70;;;18.57;;
19036;SDS011;9651;49.138;8.900;2023-03-02T07:06:15;54.60;;;20.90;;
19036;SDS011;9651;49.138;8.900;2023-03-02T07:10:17;60.03;;;22.03;;
19036;SDS011;9651;49.138;8.900;2023-03-02T07:14:19;53.63;;;21.07;;
19036;SDS011;9651;49.138;8.900;2023-03-02T07:18:21;44.33;;;19.70;;
19036;SDS011;9651;49.138;8.900;2023-03-02T07:22:24;52.27;;;19.87;;
19036;SDS011;9651;49.138;8.900;2023-03-02T07:26:26;90.40;;;33.17;;
19036;SDS011;9651;49.138;8.900;2023-03-02T07:30:28;64.47;;;26.17;;
19036;SDS011;9651;49.138;8.900;2023-03-02T07:34:30;48.03;;;21.27;;
19036;SDS011;9651;49.138;8.900;2023-03-02T07:38:34;35.67;;;16.60;;
19036;SDS011;9651;49.138;8.900;2023-03-02T07:42:37;31.73;;;16.63;;
19036;SDS011;9651;49.138;8.900;2023-03-02T07:46:40;31.27;;;15.63;;
19036;SDS011;9651;49.138;8.900;2023-03-02T07:50:42;27.67;;;14.17;;
19036;SDS011;9651;49.138;8.900;2023-03-02T07:54:45;30.80;;;15.47;;
19036;SDS011;9651;49.138;8.900;2023-03-02T07:58:47;30.77;;;14.67;;
19036;SDS011;9651;49.138;8.900;2023-03-02T08:02:49;27.90;;;14.03;;
19036;SDS011;9651;49.138;8.900;2023-03-02T08:06:50;29.07;;;15.27;;
19036;SDS011;9651;49.138;8.900;2023-03-02T08:10:54;32.83;;;15.33;;
19036;SDS011;9651;49.138;8.900;2023-03-02T08:14:56;29.97;;;14.23;;
19036;SDS011;9651;49.138;8.900;2023-03-02T08:18:57;28.13;;;15.10;;
19036;SDS011;9651;49.138;8.900;2023-03-02T08:22:59;28.00;;;14.57;;
19036;SDS011;9651;49.138;8.900;2023-03-02T08:27:03;33.30;;;15.57;;
19036;SDS011;9651;49.138;8.900;2023-03-02T08:31:06;30.87;;;15.50;;
19036;SDS011;9651;49.138;8.900;2023-03-02T08:35:09;26.23;;;14.30;;
19036;SDS011;9651;49.138;8.900;2023-03-02T08:39:11;27.67;;;14.43;;
19036;SDS011;9651;49.138;8.900;2023-03-02T08:43:15;27.60;;;14.50;;
19036;SDS011;9651;49.138;8.900;2023-03-02T08:47:17;27.40;;;15.00;;
19036;SDS011;9651;49.138;8.900;2023-03-02T08:51:20;24.93;;;15.20;;
19036;SDS011;9651;49.138;8.900;2023-03-02T08:55:23;27.30;;;13.93;;
19036;SDS011;9651;49.138;8.900;2023-03-02T08:59:33;26.97;;;14.23;;
19036;SDS011;9651;49.138;8.900;2023-03-02T09:03:38;26.97;;;14.40;;
19036;SDS011;9651;49.138;8.900;2023-03-02T09:07:40;24.03;;;13.70;;
19036;SDS011;9651;49.138;8.900;2023-03-02T09:11:42;26.57;;;14.07;;
19036;SDS011;9651;49.138;8.900;2023-03-02T09:15:46;26.57;;;14.17;;
19036;SDS011;9651;49.138;8.900;2023-03-02T09:19:48;25.37;;;13.33;;
19036;SDS011;9651;49.138;8.900;2023-03-02T09:23:50;21.40;;;12.77;;
19036;SDS011;9651;49.138;8.900;2023-03-02T09:27:55;23.07;;;13.27;;
19036;SDS011;9651;49.138;8.900;2023-03-02T09:31:58;24.10;;;12.77;;
19036;SDS011;9651;49.138;8.900;2023-03-02T09:36:03;23.83;;;13.57;;
19036;SDS011;9651;49.138;8.900;2023-03-02T09:40:11;23.33;;;13.80;;
19036;SDS011;9651;49.138;8.900;2023-03-02T09:49:06;23.97;;;14.33;;
19036;SDS011;9651;49.138;8.900;2023-03-02T09:53:28;24.37;;;13.67;;
19036;SDS011;9651;49.138;8.900;2023-03-02T09:57:37;25.30;;;14.47;;
19036;SDS011;9651;49.138;8.900;2023-03-02T10:01:40;22.77;;;13.40;;
19036;SDS011;9651;49.138;8.900;2023-03-02T10:05:47;22.03;;;14.50;;
19036;SDS011;9651;49.138;8.900;2023-03-02T10:09:50;28.50;;;14.53;;
19036;SDS011;9651;49.138;8.900;2023-03-02T10:13:54;22.70;;;14.10;;
19036;SDS011;9651;49.138;8.900;2023-03-02T10:18:03;25.57;;;14.43;;
19036;SDS011;9651;49.138;8.900;2023-03-02T10:22:20;21.60;;;13.50;;
19036;SDS011;9651;49.138;8.900;2023-03-02T10:26:34;21.93;;;13.17;;
19036;SDS011;9651;49.138;8.900;2023-03-02T10:30:39;20.00;;;13.23;;
19036;SDS011;9651;49.138;8.900;2023-03-02T10:34:41;23.80;;;14.00;;
19036;SDS011;9651;49.138;8.900;2023-03-02T10:38:44;23.93;;;14.73;;
19036;SDS011;9651;49.138;8.900;2023-03-02T10:42:46;26.93;;;15.50;;
19036;SDS011;9651;49.138;8.900;2023-03-02T10:46:49;24.00;;;14.40;;
19036;SDS011;9651;49.138;8.900;2023-03-02T10:50:53;21.33;;;13.00;;
19036;SDS011;9651;49.138;8.900;2023-03-02T10:55:03;17.77;;;13.02;;
19036;SDS011;9651;49.138;8.900;2023-03-02T10:59:23;21.55;;;14.10;;
19036;SDS011;9651;49.138;8.900;2023-03-02T11:03:32;18.48;;;12.77;;
19036;SDS011;9651;49.138;8.900;2023-03-02T11:07:34;18.60;;;13.15;;
19036;SDS011;9651;49.138;8.900;2023-03-02T11:11:38;19.42;;;12.70;;
19036;SDS011;9651;49.138;8.900;2023-03-02T11:15:42;22.25;;;13.00;;
19036;SDS011;9651;49.138;8.900;2023-03-02T11:19:46;23.60;;;14.43;;
19036;SDS011;9651;49.138;8.900;2023-03-02T11:23:52;19.95;;;13.00;;
19036;SDS011;9651;49.138;8.900;2023-03-02T11:28:01;19.13;;;12.57;;
19036;SDS011;9651;49.138;8.900;2023-03-02T11:32:10;17.77;;;12.55;;
19036;SDS011;9651;49.138;8.900;2023-03-02T11:36:19;18.52;;;13.73;;
19036;SDS011;9651;49.138;8.900;2023-03-02T11:40:25;18.23;;;12.65;;
19036;SDS011;9651;49.138;8.900;2023-03-02T11:44:34;20.75;;;12.68;;
19036;SDS011;9651;49.138;8.900;2023-03-02T11:48:36;19.95;;;12.45;;
19036;SDS011;9651;49.138;8.900;2023-03-02T11:52:43;22.92;;;12.90;;
19036;SDS011;9651;49.138;8.900;2023-03-02T11:56:50;18.67;;;13.48;;
19036;SDS011;9651;49.138;8.900;2023-03-02T12:00:53;18.48;;;12.75;;
19036;SDS011;9651;49.138;8.900;2023-03-02T12:05:01;21.95;;;13.23;;
19036;SDS011;9651;49.138;8.900;2023-03-02T12:09:13;19.15;;;13.20;;
19036;SDS011;9651;49.138;8.900;2023-03-02T12:13:30;17.17;;;12.13;;
19036;SDS011;9651;49.138;8.900;2023-03-02T12:17:34;16.67;;;11.73;;
19036;SDS011;9651;49.138;8.900;2023-03-02T12:21:39;16.38;;;12.90;;
19036;SDS011;9651;49.138;8.900;2023-03-02T12:25:43;19.52;;;12.43;;
19036;SDS011;9651;49.138;8.900;2023-03-02T12:29:51;19.98;;;13.35;;
19036;SDS011;9651;49.138;8.900;2023-03-02T12:33:59;16.08;;;12.25;;
19036;SDS011;9651;49.138;8.900;2023-03-02T12:38:02;18.35;;;13.15;;
19036;SDS011;9651;49.138;8.900;2023-03-02T12:42:13;15.90;;;11.90;;
19036;SDS011;9651;49.138;8.900;2023-03-02T12:46:30;17.98;;;12.80;;
19036;SDS011;9651;49.138;8.900;2023-03-02T12:50:35;19.25;;;12.65;;
19036;SDS011;9651;49.138;8.900;2023-03-02T12:54:39;21.00;;;13.68;;
19036;SDS011;9651;49.138;8.900;2023-03-02T12:58:47;25.70;;;13.68;;
19036;SDS011;9651;49.138;8.900;2023-03-02T13:02:50;21.75;;;12.68;;
19036;SDS011;9651;49.138;8.900;2023-03-02T13:06:55;20.77;;;13.23;;
19036;SDS011;9651;49.138;8.900;2023-03-02T13:10:57;19.58;;;13.15;;
19036;SDS011;9651;49.138;8.900;2023-03-02T13:15:02;24.07;;;11.90;;
19036;SDS011;9651;49.138;8.900;2023-03-02T13:19:13;16.83;;;11.23;;
19036;SDS011;9651;49.138;8.900;2023-03-02T13:23:18;19.50;;;12.40;;
19036;SDS011;9651;49.138;8.900;2023-03-02T13:27:21;20.00;;;12.07;;
19036;SDS011;9651;49.138;8.900;2023-03-02T13:31:24;19.73;;;11.97;;
19036;SDS011;9651;49.138;8.900;2023-03-02T13:35:27;22.17;;;12.17;;
19036;SDS011;9651;49.138;8.900;2023-03-02T13:39:32;20.53;;;12.00;;
19036;SDS011;9651;49.138;8.900;2023-03-02T13:43:35;22.03;;;10.90;;
19036;SDS011;9651;49.138;8.900;2023-03-02T13:47:38;20.67;;;11.07;;
19036;SDS011;9651;49.138;8.900;2023-03-02T13:51:43;19.13;;;11.63;;
19036;SDS011;9651;49.138;8.900;2023-03-02T13:55:48;18.97;;;11.33;;
19036;SDS011;9651;49.138;8.900;2023-03-02T13:59:51;22.10;;;12.33;;
19036;SDS011;9651;49.138;8.900;2023-03-02T14:03:53;16.63;;;10.60;;
19036;SDS011;9651;49.138;8.900;2023-03-02T14:07:55;20.10;;;11.27;;
19036;SDS011;9651;49.138;8.900;2023-03-02T14:11:58;17.70;;;10.53;;
19036;SDS011;9651;49.138;8.900;2023-03-02T14:16:00;21.60;;;10.70;;
19036;SDS011;9651;49.138;8.900;2023-03-02T14:20:02;18.17;;;10.87;;
19036;SDS011;9651;49.138;8.900;2023-03-02T14:24:04;18.60;;;11.17;;
19036;SDS011;9651;49.138;8.900;2023-03-02T14:28:08;21.33;;;11.83;;
19036;SDS011;9651;49.138;8.900;2023-03-02T14:32:15;24.13;;;11.03;;
19036;SDS011;9651;49.138;8.900;2023-03-02T14:36:18;19.87;;;11.50;;
19036;SDS011;9651;49.138;8.900;2023-03-02T14:40:24;21.63;;;11.90;;
19036;SDS011;9651;49.138;8.900;2023-03-02T14:44:29;25.00;;;11.47;;
19036;SDS011;9651;49.138;8.900;2023-03-02T14:48:31;19.90;;;11.37;;
19036;SDS011;9651;49.138;8.900;2023-03-02T14:52:34;19.30;;;10.57;;
19036;SDS011;9651;49.138;8.900;2023-03-02T14:56:38;18.43;;;9.93;;
19036;SDS011;9651;49.138;8.900;2023-03-02T15:00:42;18.30;;;10.53;;
19036;SDS011;9651;49.138;8.900;2023-03-02T15:04:45;22.90;;;9.97;;
19036;SDS011;9651;49.138;8.900;2023-03-02T15:08:47;15.30;;;9.80;;
19036;SDS011;9651;49.138;8.900;2023-03-02T15:12:49;19.40;;;10.50;;
19036;SDS011;9651;49.138;8.900;2023-03-02T15:16:52;19.63;;;10.33;;
19036;SDS011;9651;49.138;8.900;2023-03-02T15:20:54;18.13;;;10.60;;
19036;SDS011;9651;49.138;8.900;2023-03-02T15:24:56;18.67;;;11.10;;
19036;SDS011;9651;49.138;8.900;2023-03-02T15:28:58;18.20;;;9.93;;
19036;SDS011;9651;49.138;8.900;2023-03-02T15:33:01;20.13;;;11.20;;
19036;SDS011;9651;49.138;8.900;2023-03-02T15:37:03;19.40;;;9.97;;
19036;SDS011;9651;49.138;8.900;2023-03-02T15:41:05;20.67;;;12.20;;
19036;SDS011;9651;49.138;8.900;2023-03-02T15:45:09;18.67;;;10.47;;
19036;SDS011;9651;49.138;8.900;2023-03-02T15:49:13;19.57;;;11.53;;
19036;SDS011;9651;49.138;8.900;2023-03-02T15:53:15;18.93;;;11.07;;
19036;SDS011;9651;49.138;8.900;2023-03-02T15:57:16;23.80;;;10.80;;
19036;SDS011;9651;49.138;8.900;2023-03-02T16:01:18;19.60;;;11.27;;
19036;SDS011;9651;49.138;8.900;2023-03-02T16:05:22;17.63;;;10.50;;
19036;SDS011;9651;49.138;8.900;2023-03-02T16:09:25;17.50;;;9.33;;
19036;SDS011;9651;49.138;8.900;2023-03-02T16:13:28;17.20;;;9.93;;
19036;SDS011;9651;49.138;8.900;2023-03-02T16:17:30;20.60;;;10.37;;
19036;SDS011;9651;49.138;8.900;2023-03-02T16:21:33;31.13;;;13.37;;
19036;SDS011;9651;49.138;8.900;2023-03-02T16:25:35;27.57;;;12.13;;
19036;SDS011;9651;49.138;8.900;2023-03-02T16:29:39;24.97;;;12.23;;
19036;SDS011;9651;49.138;8.900;2023-03-02T16:33:42;20.83;;;12.97;;
19036;SDS011;9651;49.138;8.900;2023-03-02T16:37:46;24.00;;;12.73;;
19036;SDS011;9651;49.138;8.900;2023-03-02T16:41:48;21.90;;;11.40;;
19036;SDS011;9651;49.138;8.900;2023-03-02T16:45:50;24.70;;;13.10;;
19036;SDS011;9651;49.138;8.900;2023-03-02T16:49:52;30.00;;;15.87;;
19036;SDS011;9651;49.138;8.900;2023-03-02T16:53:55;25.30;;;15.37;;
19036;SDS011;9651;49.138;8.900;2023-03-02T16:57:58;19.73;;;11.57;;
19036;SDS011;9651;49.138;8.900;2023-03-02T17:02:00;18.80;;;9.77;;
19036;SDS011;9651;49.138;8.900;2023-03-02T17:06:03;22.30;;;10.53;;
19036;SDS011;9651;49.138;8.900;2023-03-02T17:10:08;19.30;;;10.37;;
19036;SDS011;9651;49.138;8.900;2023-03-02T17:14:13;19.90;;;9.93;;
19036;SDS011;9651;49.138;8.900;2023-03-02T17:18:15;17.50;;;9.90;;
19036;SDS011;9651;49.138;8.900;2023-03-02T17:22:17;20.27;;;8.83;;
19036;SDS011;9651;49.138;8.900;2023-03-02T17:26:21;18.70;;;8.83;;
19036;SDS011;9651;49.138;8.900;2023-03-02T17:30:22;21.00;;;9.27;;
19036;SDS011;9651;49.138;8.900;2023-03-02T17:34:25;17.27;;;9.70;;
19036;SDS011;9651;49.138;8.900;2023-03-02T17:38:30;21.03;;;9.83;;
19036;SDS011;9651;49.138;8.900;2023-03-02T17:42:34;20.37;;;10.00;;
19036;SDS011;9651;49.138;8.900;2023-03-02T17:46:36;18.90;;;8.90;;
19036;SDS011;9651;49.138;8.900;2023-03-02T17:50:38;15.73;;;9.93;;
19036;SDS011;9651;49.138;8.900;2023-03-02T17:54:40;20.87;;;12.80;;
19036;SDS011;9651;49.138;8.900;2023-03-02T17:58:44;22.77;;;12.83;;
19036;SDS011;9651;49.138;8.900;2023-03-02T18:02:47;31.30;;;13.77;;
19036;SDS011;9651;49.138;8.900;2023-03-02T18:06:50;27.30;;;14.67;;
19036;SDS011;9651;49.138;8.900;2023-03-02T18:10:52;26.03;;;13.53;;
19036;SDS011;9651;49.138;8.900;2023-03-02T18:14:55;28.20;;;14.50;;
19036;SDS011;9651;49.138;8.900;2023-03-02T18:18:57;30.43;;;14.53;;
19036;SDS011;9651;49.138;8.900;2023-03-02T18:22:59;27.67;;;15.83;;
19036;SDS011;9651;49.138;8.900;2023-03-02T18:27:02;27.87;;;15.40;;
19036;SDS011;9651;49.138;8.900;2023-03-02T18:31:06;39.53;;;20.93;;
19036;SDS011;9651;49.138;8.900;2023-03-02T18:35:10;28.43;;;14.80;;
19036;SDS011;9651;49.138;8.900;2023-03-02T18:39:12;28.83;;;15.60;;
19036;SDS011;9651;49.138;8.900;2023-03-02T18:43:14;29.73;;;16.70;;
19036;SDS011;9651;49.138;8.900;2023-03-02T18:47:17;33.67;;;16.47;;
19036;SDS011;9651;49.138;8.900;2023-03-02T18:51:21;25.47;;;14.40;;
19036;SDS011;9651;49.138;8.900;2023-03-02T18:55:25;29.40;;;15.87;;
19036;SDS011;9651;49.138;8.900;2023-03-02T18:59:27;30.00;;;15.63;;
19036;SDS011;9651;49.138;8.900;2023-03-02T19:03:31;34.27;;;17.07;;
19036;SDS011;9651;49.138;8.900;2023-03-02T19:07:36;31.50;;;17.13;;
19036;SDS011;9651;49.138;8.900;2023-03-02T19:11:38;30.50;;;15.77;;
19036;SDS011;9651;49.138;8.900;2023-03-02T19:15:40;32.57;;;17.07;;
19036;SDS011;9651;49.138;8.900;2023-03-02T19:19:43;32.23;;;15.40;;
19036;SDS011;9651;49.138;8.900;2023-03-02T19:23:45;31.77;;;16.77;;
19036;SDS011;9651;49.138;8.900;2023-03-02T19:27:47;30.50;;;16.73;;
19036;SDS011;9651;49.138;8.900;2023-03-02T19:31:49;29.13;;;16.13;;
19036;SDS011;9651;49.138;8.900;2023-03-02T19:35:53;33.30;;;17.27;;
19036;SDS011;9651;49.138;8.900;2023-03-02T19:39:55;38.50;;;17.73;;
19036;SDS011;9651;49.138;8.900;2023-03-02T19:43:57;35.13;;;17.13;;
19036;SDS011;9651;49.138;8.900;2023-03-02T19:47:59;32.80;;;17.30;;
19036;SDS011;9651;49.138;8.900;2023-03-02T19:52:04;35.27;;;18.53;;
19036;SDS011;9651;49.138;8.900;2023-03-02T19:56:07;33.80;;;17.80;;
19036;SDS011;9651;49.138;8.900;2023-03-02T20:00:13;34.07;;;18.80;;
19036;SDS011;9651;49.138;8.900;2023-03-02T20:04:16;36.77;;;18.70;;
19036;SDS011;9651;49.138;8.900;2023-03-02T20:08:19;32.00;;;17.93;;
19036;SDS011;9651;49.138;8.900;2023-03-02T20:12:22;35.20;;;17.80;;
19036;SDS011;9651;49.138;8.900;2023-03-02T20:16:24;33.47;;;18.43;;
19036;SDS011;9651;49.138;8.900;2023-03-02T20:20:26;34.27;;;17.67;;
19036;SDS011;9651;49.138;8.900;2023-03-02T20:24:29;31.10;;;17.00;;
19036;SDS011;9651;49.138;8.900;2023-03-02T20:28:31;33.27;;;17.63;;
19036;SDS011;9651;49.138;8.900;2023-03-02T20:32:33;37.43;;;17.97;;
19036;SDS011;9651;49.138;8.900;2023-03-02T20:36:35;34.20;;;17.80;;
19036;SDS011;9651;49.138;8.900;2023-03-02T20:40:39;37.60;;;18.03;;
19036;SDS011;9651;49.138;8.900;2023-03-02T20:44:41;37.33;;;18.83;;
19036;SDS011;9651;49.138;8.900;2023-03-02T20:48:43;36.97;;;18.70;;
19036;SDS011;9651;49.138;8.900;2023-03-02T20:52:45;32.73;;;17.70;;
19036;SDS011;9651;49.138;8.900;2023-03-02T20:56:48;32.37;;;17.37;;
19036;SDS011;9651;49.138;8.900;2023-03-02T21:00:51;41.60;;;19.23;;
19036;SDS011;9651;49.138;8.900;2023-03-02T21:04:54;39.60;;;18.17;;
19036;SDS011;9651;49.138;8.900;2023-03-02T21:08:56;38.80;;;18.80;;
19036;SDS011;9651;49.138;8.900;2023-03-02T21:13:00;39.63;;;18.57;;
19036;SDS011;9651;49.138;8.900;2023-03-02T21:17:03;46.90;;;20.07;;
19036;SDS011;9651;49.138;8.900;2023-03-02T21:21:05;42.13;;;19.00;;
19036;SDS011;9651;49.138;8.900;2023-03-02T21:25:07;37.63;;;17.80;;
19036;SDS011;9651;49.138;8.900;2023-03-02T21:29:11;37.40;;;18.60;;
19036;SDS011;9651;49.138;8.900;2023-03-02T21:33:13;42.03;;;19.47;;
19036;SDS011;9651;49.138;8.900;2023-03-02T21:37:15;38.93;;;19.27;;
19036;SDS011;9651;49.138;8.900;2023-03-02T21:41:18;40.30;;;18.83;;
19036;SDS011;9651;49.138;8.900;2023-03-02T21:45:21;37.57;;;19.00;;
19036;SDS011;9651;49.138;8.900;2023-03-02T21:49:23;38.80;;;18.67;;
19036;SDS011;9651;49.138;8.900;2023-03-02T21:53:25;37.77;;;18.50;;
19036;SDS011;9651;49.138;8.900;2023-03-02T21:57:27;38.67;;;17.73;;
19036;SDS011;9651;49.138;8.900;2023-03-02T22:01:30;42.17;;;18.87;;
19036;SDS011;9651;49.138;8.900;2023-03-02T22:05:32;43.60;;;18.90;;
19036;SDS011;9651;49.138;8.900;2023-03-02T22:09:35;45.87;;;20.30;;
19036;SDS011;9651;49.138;8.900;2023-03-02T22:13:37;47.20;;;20.13;;
19036;SDS011;9651;49.138;8.900;2023-03-02T22:17:40;45.07;;;19.43;;
19036;SDS011;9651;49.138;8.900;2023-03-02T22:21:43;44.27;;;19.70;;
19036;SDS011;9651;49.138;8.900;2023-03-02T22:25:48;39.77;;;19.80;;
19036;SDS011;9651;49.138;8.900;2023-03-02T22:29:53;40.20;;;19.43;;
19036;SDS011;9651;49.138;8.900;2023-03-02T22:33:59;47.30;;;20.37;;
19036;SDS011;9651;49.138;8.900;2023-03-02T22:38:03;45.27;;;19.73;;
19036;SDS011;9651;49.138;8.900;2023-03-02T22:42:13;46.60;;;21.73;;
19036;SDS011;9651;49.138;8.900;2023-03-02T22:46:17;47.13;;;21.53;;
19036;SDS011;9651;49.138;8.900;2023-03-02T22:50:22;46.20;;;19.67;;
19036;SDS011;9651;49.138;8.900;2023-03-02T22:54:27;39.67;;;18.77;;
19036;SDS011;9651;49.138;8.900;2023-03-02T22:58:41;42.43;;;20.27;;
19036;SDS011;9651;49.138;8.900;2023-03-02T23:02:46;42.83;;;19.53;;
19036;SDS011;9651;49.138;8.900;2023-03-02T23:06:49;46.40;;;20.70;;
19036;SDS011;9651;49.138;8.900;2023-03-02T23:10:53;48.57;;;18.37;;
19036;SDS011;9651;49.138;8.900;2023-03-02T23:14:57;44.17;;;19.10;;
19036;SDS011;9651;49.138;8.900;2023-03-02T23:18:59;47.73;;;20.33;;
19036;SDS011;9651;49.138;8.900;2023-03-02T23:23:03;42.57;;;19.87;;
19036;SDS011;9651;49.138;8.900;2023-03-02T23:27:05;43.13;;;19.80;;
19036;SDS011;9651;49.138;8.900;2023-03-02T23:31:08;43.47;;;19.63;;
19036;SDS011;9651;49.138;8.900;2023-03-02T23:35:10;42.67;;;20.53;;
19036;SDS011;9651;49.138;8.900;2023-03-02T23:39:13;39.60;;;18.73;;
19036;SDS011;9651;49.138;8.900;2023-03-02T23:43:16;41.17;;;18.77;;
19036;SDS011;9651;49.138;8.900;2023-03-02T23:47:18;41.33;;;19.73;;
19036;SDS011;9651;49.138;8.900;2023-03-02T23:51:20;39.67;;;18.50;;
19036;SDS011;9651;49.138;8.900;2023-03-02T23:55:23;38.77;;;19.40;;
19036;SDS011;9651;49.138;8.900;2023-03-02T23:59:25;43.27;;;18.77;;
